sensor_id;sensor_type;location;lat;lon;timestamp;P1;durP1;ratioP1;P2;durP2;ratioP2
7231;SDS011;3657;49.630;11.018;2022-08-19T00:01:10;15.60;;;14.73;;
7231;SDS011;3657;49.630;11.018;2022-08-19T00:03:36;14.10;;;13.50;;
7231;SDS011;3657;49.630;11.018;2022-08-19T00:06:03;15.60;;;15.00;;
7231;SDS011;3657;49.630;11.018;2022-08-19T00:08:31;16.27;;;15.63;;
7231;SDS011;3657;49.630;11.018;2022-08-19T00:10:58;15.77;;;15.17;;
7231;SDS011;3657;49.630;11.018;2022-08-19T00:13:25;16.43;;;15.73;;
7231;SDS011;3657;49.630;11.018;2022-08-19T00:15:53;15.97;;;15.27;;
7231;SDS011;3657;49.630;11.018;2022-08-19T00:18:20;14.90;;;14.40;;
7231;SDS011;3657;49.630;11.018;2022-08-19T00:20:46;16.00;;;15.40;;
7231;SDS011;3657;49.630;11.018;2022-08-19T00:23:13;23.33;;;21.93;;
7231;SDS011;3657;49.630;11.018;2022-08-19T00:25:42;16.03;;;15.43;;
7231;SDS011;3657;49.630;11.018;2022-08-19T00:28:09;17.20;;;16.40;;
7231;SDS011;3657;49.630;11.018;2022-08-19T00:30:35;15.63;;;14.93;;
7231;SDS011;3657;49.630;11.018;2022-08-19T00:33:02;17.10;;;16.40;;
7231;SDS011;3657;49.630;11.018;2022-08-19T00:35:29;15.80;;;15.27;;
7231;SDS011;3657;49.630;11.018;2022-08-19T00:37:57;16.60;;;15.90;;
7231;SDS011;3657;49.630;11.018;2022-08-19T00:40:24;17.23;;;16.40;;
7231;SDS011;3657;49.630;11.018;2022-08-19T00:42:53;16.47;;;15.87;;
7231;SDS011;3657;49.630;11.018;2022-08-19T00:45:20;15.87;;;15.27;;
7231;SDS011;3657;49.630;11.018;2022-08-19T00:47:48;16.97;;;16.27;;
7231;SDS011;3657;49.630;11.018;2022-08-19T00:50:17;16.40;;;15.60;;
7231;SDS011;3657;49.630;11.018;2022-08-19T00:52:48;16.77;;;16.07;;
7231;SDS011;3657;49.630;11.018;2022-08-19T00:55:18;16.50;;;15.80;;
7231;SDS011;3657;49.630;11.018;2022-08-19T00:57:48;17.70;;;16.97;;
7231;SDS011;3657;49.630;11.018;2022-08-19T01:00:22;16.03;;;15.40;;
7231;SDS011;3657;49.630;11.018;2022-08-19T01:02:50;16.53;;;15.77;;
7231;SDS011;3657;49.630;11.018;2022-08-19T01:05:19;16.73;;;16.10;;
7231;SDS011;3657;49.630;11.018;2022-08-19T01:07:48;15.77;;;15.17;;
7231;SDS011;3657;49.630;11.018;2022-08-19T01:10:17;17.73;;;16.87;;
7231;SDS011;3657;49.630;11.018;2022-08-19T01:12:49;17.57;;;16.87;;
7231;SDS011;3657;49.630;11.018;2022-08-19T01:15:19;16.33;;;15.63;;
7231;SDS011;3657;49.630;11.018;2022-08-19T01:17:51;17.20;;;16.37;;
7231;SDS011;3657;49.630;11.018;2022-08-19T01:20:20;17.17;;;16.47;;
7231;SDS011;3657;49.630;11.018;2022-08-19T01:22:50;17.87;;;17.13;;
7231;SDS011;3657;49.630;11.018;2022-08-19T01:25:19;17.73;;;17.03;;
7231;SDS011;3657;49.630;11.018;2022-08-19T01:27:48;17.03;;;16.33;;
7231;SDS011;3657;49.630;11.018;2022-08-19T01:30:17;18.17;;;17.33;;
7231;SDS011;3657;49.630;11.018;2022-08-19T01:32:47;16.60;;;16.00;;
7231;SDS011;3657;49.630;11.018;2022-08-19T01:35:14;17.20;;;16.30;;
7231;SDS011;3657;49.630;11.018;2022-08-19T01:37:43;16.67;;;15.97;;
7231;SDS011;3657;49.630;11.018;2022-08-19T01:40:12;15.90;;;15.20;;
7231;SDS011;3657;49.630;11.018;2022-08-19T01:42:39;18.10;;;17.30;;
7231;SDS011;3657;49.630;11.018;2022-08-19T01:45:07;17.40;;;16.60;;
7231;SDS011;3657;49.630;11.018;2022-08-19T01:47:34;15.57;;;14.87;;
7231;SDS011;3657;49.630;11.018;2022-08-19T01:50:02;18.10;;;17.40;;
7231;SDS011;3657;49.630;11.018;2022-08-19T01:52:29;17.20;;;16.57;;
7231;SDS011;3657;49.630;11.018;2022-08-19T01:54:55;16.17;;;15.57;;
7231;SDS011;3657;49.630;11.018;2022-08-19T01:57:23;17.07;;;16.27;;
7231;SDS011;3657;49.630;11.018;2022-08-19T01:59:50;17.67;;;16.90;;
7231;SDS011;3657;49.630;11.018;2022-08-19T02:02:17;17.20;;;16.43;;
7231;SDS011;3657;49.630;11.018;2022-08-19T02:04:44;18.07;;;17.27;;
7231;SDS011;3657;49.630;11.018;2022-08-19T02:07:11;18.17;;;17.37;;
7231;SDS011;3657;49.630;11.018;2022-08-19T02:09:38;17.23;;;16.53;;
7231;SDS011;3657;49.630;11.018;2022-08-19T02:12:06;18.43;;;17.57;;
7231;SDS011;3657;49.630;11.018;2022-08-19T02:14:35;18.03;;;17.30;;
7231;SDS011;3657;49.630;11.018;2022-08-19T02:17:02;16.63;;;15.97;;
7231;SDS011;3657;49.630;11.018;2022-08-19T02:19:29;17.97;;;17.00;;
7231;SDS011;3657;49.630;11.018;2022-08-19T02:21:57;18.33;;;17.63;;
7231;SDS011;3657;49.630;11.018;2022-08-19T02:24:24;17.33;;;16.53;;
7231;SDS011;3657;49.630;11.018;2022-08-19T02:26:51;18.50;;;17.60;;
7231;SDS011;3657;49.630;11.018;2022-08-19T02:29:17;16.17;;;15.57;;
7231;SDS011;3657;49.630;11.018;2022-08-19T02:31:46;18.03;;;17.33;;
7231;SDS011;3657;49.630;11.018;2022-08-19T02:34:13;17.73;;;16.93;;
7231;SDS011;3657;49.630;11.018;2022-08-19T02:36:39;18.73;;;17.83;;
7231;SDS011;3657;49.630;11.018;2022-08-19T02:39:06;18.43;;;17.53;;
7231;SDS011;3657;49.630;11.018;2022-08-19T02:41:32;18.37;;;17.47;;
7231;SDS011;3657;49.630;11.018;2022-08-19T02:44:01;19.00;;;18.10;;
7231;SDS011;3657;49.630;11.018;2022-08-19T02:46:30;18.23;;;17.43;;
7231;SDS011;3657;49.630;11.018;2022-08-19T02:49:01;16.70;;;15.93;;
7231;SDS011;3657;49.630;11.018;2022-08-19T02:51:30;18.30;;;17.50;;
7231;SDS011;3657;49.630;11.018;2022-08-19T02:53:59;17.70;;;16.90;;
7231;SDS011;3657;49.630;11.018;2022-08-19T02:56:26;17.63;;;16.93;;
7231;SDS011;3657;49.630;11.018;2022-08-19T02:58:53;19.00;;;18.00;;
7231;SDS011;3657;49.630;11.018;2022-08-19T03:01:21;18.47;;;17.67;;
7231;SDS011;3657;49.630;11.018;2022-08-19T03:03:49;17.93;;;17.03;;
7231;SDS011;3657;49.630;11.018;2022-08-19T03:06:17;18.70;;;17.80;;
7231;SDS011;3657;49.630;11.018;2022-08-19T03:08:46;18.23;;;17.30;;
7231;SDS011;3657;49.630;11.018;2022-08-19T03:11:15;18.37;;;17.37;;
7231;SDS011;3657;49.630;11.018;2022-08-19T03:13:43;18.57;;;17.50;;
7231;SDS011;3657;49.630;11.018;2022-08-19T03:16:10;20.50;;;19.37;;
7231;SDS011;3657;49.630;11.018;2022-08-19T03:18:36;18.77;;;17.70;;
7231;SDS011;3657;49.630;11.018;2022-08-19T03:21:04;18.70;;;17.80;;
7231;SDS011;3657;49.630;11.018;2022-08-19T03:23:32;18.07;;;17.17;;
7231;SDS011;3657;49.630;11.018;2022-08-19T03:26:02;18.57;;;17.70;;
7231;SDS011;3657;49.630;11.018;2022-08-19T03:28:31;18.23;;;17.33;;
7231;SDS011;3657;49.630;11.018;2022-08-19T03:30:59;18.47;;;17.67;;
7231;SDS011;3657;49.630;11.018;2022-08-19T03:33:27;18.43;;;17.53;;
7231;SDS011;3657;49.630;11.018;2022-08-19T03:36:02;18.43;;;17.63;;
7231;SDS011;3657;49.630;11.018;2022-08-19T03:38:34;18.57;;;17.67;;
7231;SDS011;3657;49.630;11.018;2022-08-19T03:41:05;19.07;;;17.93;;
7231;SDS011;3657;49.630;11.018;2022-08-19T03:43:34;19.37;;;18.47;;
7231;SDS011;3657;49.630;11.018;2022-08-19T03:46:03;18.47;;;17.57;;
7231;SDS011;3657;49.630;11.018;2022-08-19T03:48:32;19.80;;;18.80;;
7231;SDS011;3657;49.630;11.018;2022-08-19T03:51:01;17.80;;;17.03;;
7231;SDS011;3657;49.630;11.018;2022-08-19T03:53:28;19.83;;;18.87;;
7231;SDS011;3657;49.630;11.018;2022-08-19T03:55:57;18.77;;;17.77;;
7231;SDS011;3657;49.630;11.018;2022-08-19T03:58:24;19.80;;;18.73;;
7231;SDS011;3657;49.630;11.018;2022-08-19T04:00:52;19.70;;;18.60;;
7231;SDS011;3657;49.630;11.018;2022-08-19T04:03:19;19.13;;;18.23;;
7231;SDS011;3657;49.630;11.018;2022-08-19T04:05:46;20.17;;;19.17;;
7231;SDS011;3657;49.630;11.018;2022-08-19T04:08:13;20.13;;;19.03;;
7231;SDS011;3657;49.630;11.018;2022-08-19T04:10:45;20.67;;;19.50;;
7231;SDS011;3657;49.630;11.018;2022-08-19T04:13:14;20.30;;;19.30;;
7231;SDS011;3657;49.630;11.018;2022-08-19T04:15:41;19.50;;;18.50;;
7231;SDS011;3657;49.630;11.018;2022-08-19T04:18:11;20.77;;;19.60;;
7231;SDS011;3657;49.630;11.018;2022-08-19T04:20:39;19.77;;;18.77;;
7231;SDS011;3657;49.630;11.018;2022-08-19T04:23:07;19.93;;;18.93;;
7231;SDS011;3657;49.630;11.018;2022-08-19T04:25:35;20.20;;;19.20;;
7231;SDS011;3657;49.630;11.018;2022-08-19T04:28:02;20.67;;;19.43;;
7231;SDS011;3657;49.630;11.018;2022-08-19T04:30:30;21.60;;;20.40;;
7231;SDS011;3657;49.630;11.018;2022-08-19T04:33:03;21.23;;;20.00;;
7231;SDS011;3657;49.630;11.018;2022-08-19T04:35:34;20.33;;;19.23;;
7231;SDS011;3657;49.630;11.018;2022-08-19T04:38:02;21.20;;;19.93;;
7231;SDS011;3657;49.630;11.018;2022-08-19T04:40:28;21.20;;;20.03;;
7231;SDS011;3657;49.630;11.018;2022-08-19T04:43:13;22.87;;;21.53;;
7231;SDS011;3657;49.630;11.018;2022-08-19T04:45:42;22.10;;;20.80;;
7231;SDS011;3657;49.630;11.018;2022-08-19T04:48:09;22.50;;;21.20;;
7231;SDS011;3657;49.630;11.018;2022-08-19T04:50:39;22.63;;;21.23;;
7231;SDS011;3657;49.630;11.018;2022-08-19T04:53:06;22.50;;;21.17;;
7231;SDS011;3657;49.630;11.018;2022-08-19T04:55:33;23.03;;;21.73;;
7231;SDS011;3657;49.630;11.018;2022-08-19T04:58:01;22.40;;;21.00;;
7231;SDS011;3657;49.630;11.018;2022-08-19T05:00:28;23.20;;;21.73;;
7231;SDS011;3657;49.630;11.018;2022-08-19T05:02:56;22.60;;;21.20;;
7231;SDS011;3657;49.630;11.018;2022-08-19T05:05:22;23.97;;;22.57;;
7231;SDS011;3657;49.630;11.018;2022-08-19T05:07:49;24.17;;;22.47;;
7231;SDS011;3657;49.630;11.018;2022-08-19T05:10:16;22.57;;;21.23;;
7231;SDS011;3657;49.630;11.018;2022-08-19T05:12:43;23.00;;;21.60;;
7231;SDS011;3657;49.630;11.018;2022-08-19T05:15:09;22.83;;;21.43;;
7231;SDS011;3657;49.630;11.018;2022-08-19T05:17:36;22.13;;;20.73;;
7231;SDS011;3657;49.630;11.018;2022-08-19T05:20:24;22.03;;;20.80;;
7231;SDS011;3657;49.630;11.018;2022-08-19T05:23:17;22.73;;;21.40;;
7231;SDS011;3657;49.630;11.018;2022-08-19T05:25:44;24.20;;;22.50;;
7231;SDS011;3657;49.630;11.018;2022-08-19T05:28:10;25.30;;;23.67;;
7231;SDS011;3657;49.630;11.018;2022-08-19T05:30:37;22.23;;;20.93;;
7231;SDS011;3657;49.630;11.018;2022-08-19T05:33:05;23.17;;;21.77;;
7231;SDS011;3657;49.630;11.018;2022-08-19T05:35:35;22.90;;;21.60;;
7231;SDS011;3657;49.630;11.018;2022-08-19T05:38:02;22.43;;;21.03;;
7231;SDS011;3657;49.630;11.018;2022-08-19T05:40:29;23.23;;;21.93;;
7231;SDS011;3657;49.630;11.018;2022-08-19T05:42:56;21.83;;;20.53;;
7231;SDS011;3657;49.630;11.018;2022-08-19T05:45:23;23.77;;;22.13;;
7231;SDS011;3657;49.630;11.018;2022-08-19T05:47:50;23.07;;;21.67;;
7231;SDS011;3657;49.630;11.018;2022-08-19T05:50:16;22.57;;;21.27;;
7231;SDS011;3657;49.630;11.018;2022-08-19T05:52:44;22.73;;;21.43;;
7231;SDS011;3657;49.630;11.018;2022-08-19T05:55:11;23.63;;;22.13;;
7231;SDS011;3657;49.630;11.018;2022-08-19T05:57:38;24.93;;;23.33;;
7231;SDS011;3657;49.630;11.018;2022-08-19T06:00:06;23.37;;;21.97;;
7231;SDS011;3657;49.630;11.018;2022-08-19T06:02:35;23.77;;;22.27;;
7231;SDS011;3657;49.630;11.018;2022-08-19T06:05:02;23.27;;;21.73;;
7231;SDS011;3657;49.630;11.018;2022-08-19T06:07:31;23.90;;;22.30;;
7231;SDS011;3657;49.630;11.018;2022-08-19T06:09:59;22.70;;;21.37;;
7231;SDS011;3657;49.630;11.018;2022-08-19T06:12:26;22.37;;;21.07;;
7231;SDS011;3657;49.630;11.018;2022-08-19T06:14:56;22.50;;;21.17;;
7231;SDS011;3657;49.630;11.018;2022-08-19T06:17:23;23.00;;;21.70;;
7231;SDS011;3657;49.630;11.018;2022-08-19T06:19:51;23.23;;;21.73;;
7231;SDS011;3657;49.630;11.018;2022-08-19T06:22:18;22.83;;;21.43;;
7231;SDS011;3657;49.630;11.018;2022-08-19T06:24:44;22.67;;;21.37;;
7231;SDS011;3657;49.630;11.018;2022-08-19T06:27:12;29.20;;;27.00;;
7231;SDS011;3657;49.630;11.018;2022-08-19T06:29:40;23.40;;;21.90;;
7231;SDS011;3657;49.630;11.018;2022-08-19T06:32:07;22.97;;;21.53;;
7231;SDS011;3657;49.630;11.018;2022-08-19T06:34:34;21.23;;;19.93;;
7231;SDS011;3657;49.630;11.018;2022-08-19T06:37:01;22.87;;;21.37;;
7231;SDS011;3657;49.630;11.018;2022-08-19T06:39:30;25.33;;;23.60;;
7231;SDS011;3657;49.630;11.018;2022-08-19T06:41:59;23.33;;;21.83;;
7231;SDS011;3657;49.630;11.018;2022-08-19T06:44:30;22.47;;;21.17;;
7231;SDS011;3657;49.630;11.018;2022-08-19T06:47:00;21.60;;;20.37;;
7231;SDS011;3657;49.630;11.018;2022-08-19T06:49:28;24.07;;;22.47;;
7231;SDS011;3657;49.630;11.018;2022-08-19T06:51:56;23.93;;;22.47;;
7231;SDS011;3657;49.630;11.018;2022-08-19T06:54:23;21.87;;;20.57;;
7231;SDS011;3657;49.630;11.018;2022-08-19T06:56:51;22.50;;;21.20;;
7231;SDS011;3657;49.630;11.018;2022-08-19T06:59:19;25.43;;;23.70;;
7231;SDS011;3657;49.630;11.018;2022-08-19T07:01:50;21.97;;;20.67;;
7231;SDS011;3657;49.630;11.018;2022-08-19T07:04:18;22.50;;;21.13;;
7231;SDS011;3657;49.630;11.018;2022-08-19T07:06:46;23.03;;;21.63;;
7231;SDS011;3657;49.630;11.018;2022-08-19T07:09:14;23.60;;;22.17;;
7231;SDS011;3657;49.630;11.018;2022-08-19T07:11:43;21.00;;;19.90;;
7231;SDS011;3657;49.630;11.018;2022-08-19T07:14:11;22.17;;;20.70;;
7231;SDS011;3657;49.630;11.018;2022-08-19T07:16:39;22.97;;;21.63;;
7231;SDS011;3657;49.630;11.018;2022-08-19T07:19:07;22.13;;;20.77;;
7231;SDS011;3657;49.630;11.018;2022-08-19T07:21:34;23.10;;;21.70;;
7231;SDS011;3657;49.630;11.018;2022-08-19T07:24:02;22.20;;;20.90;;
7231;SDS011;3657;49.630;11.018;2022-08-19T07:26:30;21.77;;;20.40;;
7231;SDS011;3657;49.630;11.018;2022-08-19T07:28:59;22.60;;;21.27;;
7231;SDS011;3657;49.630;11.018;2022-08-19T07:31:27;27.30;;;25.40;;
7231;SDS011;3657;49.630;11.018;2022-08-19T07:33:55;21.73;;;20.37;;
7231;SDS011;3657;49.630;11.018;2022-08-19T07:36:24;24.07;;;22.37;;
7231;SDS011;3657;49.630;11.018;2022-08-19T07:38:55;22.33;;;20.93;;
7231;SDS011;3657;49.630;11.018;2022-08-19T07:41:23;21.83;;;20.53;;
7231;SDS011;3657;49.630;11.018;2022-08-19T07:43:51;24.43;;;22.80;;
7231;SDS011;3657;49.630;11.018;2022-08-19T07:46:19;26.73;;;24.73;;
7231;SDS011;3657;49.630;11.018;2022-08-19T07:48:46;23.63;;;22.13;;
7231;SDS011;3657;49.630;11.018;2022-08-19T07:51:15;22.23;;;20.87;;
7231;SDS011;3657;49.630;11.018;2022-08-19T07:53:46;24.93;;;23.23;;
7231;SDS011;3657;49.630;11.018;2022-08-19T07:56:16;22.83;;;21.33;;
7231;SDS011;3657;49.630;11.018;2022-08-19T07:58:44;23.90;;;22.23;;
7231;SDS011;3657;49.630;11.018;2022-08-19T08:01:14;24.77;;;23.07;;
7231;SDS011;3657;49.630;11.018;2022-08-19T08:03:43;24.43;;;22.80;;
7231;SDS011;3657;49.630;11.018;2022-08-19T08:06:27;22.33;;;20.87;;
7231;SDS011;3657;49.630;11.018;2022-08-19T08:09:15;23.40;;;21.90;;
7231;SDS011;3657;49.630;11.018;2022-08-19T08:11:48;23.40;;;21.90;;
7231;SDS011;3657;49.630;11.018;2022-08-19T08:14:17;23.60;;;22.10;;
7231;SDS011;3657;49.630;11.018;2022-08-19T08:16:46;24.40;;;22.60;;
7231;SDS011;3657;49.630;11.018;2022-08-19T08:19:16;23.00;;;21.40;;
7231;SDS011;3657;49.630;11.018;2022-08-19T08:21:44;24.67;;;23.00;;
7231;SDS011;3657;49.630;11.018;2022-08-19T08:24:11;20.83;;;19.60;;
7231;SDS011;3657;49.630;11.018;2022-08-19T08:26:39;22.30;;;20.90;;
7231;SDS011;3657;49.630;11.018;2022-08-19T08:29:06;24.77;;;22.90;;
7231;SDS011;3657;49.630;11.018;2022-08-19T08:31:35;24.13;;;22.57;;
7231;SDS011;3657;49.630;11.018;2022-08-19T08:34:02;24.07;;;22.50;;
7231;SDS011;3657;49.630;11.018;2022-08-19T08:36:29;21.93;;;20.63;;
7231;SDS011;3657;49.630;11.018;2022-08-19T08:38:58;21.17;;;19.87;;
7231;SDS011;3657;49.630;11.018;2022-08-19T08:41:26;21.17;;;19.87;;
7231;SDS011;3657;49.630;11.018;2022-08-19T08:44:02;24.40;;;22.80;;
7231;SDS011;3657;49.630;11.018;2022-08-19T08:46:30;21.90;;;20.60;;
7231;SDS011;3657;49.630;11.018;2022-08-19T08:49:05;23.63;;;22.10;;
7231;SDS011;3657;49.630;11.018;2022-08-19T08:51:40;26.57;;;24.63;;
7231;SDS011;3657;49.630;11.018;2022-08-19T08:54:10;22.67;;;21.27;;
7231;SDS011;3657;49.630;11.018;2022-08-19T08:56:39;27.27;;;25.27;;
7231;SDS011;3657;49.630;11.018;2022-08-19T08:59:10;26.43;;;24.53;;
7231;SDS011;3657;49.630;11.018;2022-08-19T09:01:44;23.63;;;22.03;;
7231;SDS011;3657;49.630;11.018;2022-08-19T09:04:11;22.40;;;21.00;;
7231;SDS011;3657;49.630;11.018;2022-08-19T09:06:40;26.07;;;24.03;;
7231;SDS011;3657;49.630;11.018;2022-08-19T09:09:17;23.37;;;21.83;;
7231;SDS011;3657;49.630;11.018;2022-08-19T09:11:50;23.93;;;22.43;;
7231;SDS011;3657;49.630;11.018;2022-08-19T09:14:35;27.10;;;25.20;;
7231;SDS011;3657;49.630;11.018;2022-08-19T09:17:07;24.10;;;22.40;;
7231;SDS011;3657;49.630;11.018;2022-08-19T09:19:34;25.40;;;23.57;;
7231;SDS011;3657;49.630;11.018;2022-08-19T09:22:02;23.87;;;22.20;;
7231;SDS011;3657;49.630;11.018;2022-08-19T09:24:30;24.50;;;22.70;;
7231;SDS011;3657;49.630;11.018;2022-08-19T09:26:56;25.47;;;23.67;;
7231;SDS011;3657;49.630;11.018;2022-08-19T09:29:23;22.57;;;21.17;;
7231;SDS011;3657;49.630;11.018;2022-08-19T09:31:51;23.13;;;21.63;;
7231;SDS011;3657;49.630;11.018;2022-08-19T09:34:18;22.60;;;21.10;;
7231;SDS011;3657;49.630;11.018;2022-08-19T09:36:45;27.30;;;25.40;;
7231;SDS011;3657;49.630;11.018;2022-08-19T09:39:14;24.90;;;23.20;;
7231;SDS011;3657;49.630;11.018;2022-08-19T09:41:41;23.73;;;22.10;;
7231;SDS011;3657;49.630;11.018;2022-08-19T09:44:07;22.50;;;20.90;;
7231;SDS011;3657;49.630;11.018;2022-08-19T09:46:36;23.83;;;22.23;;
7231;SDS011;3657;49.630;11.018;2022-08-19T09:49:04;27.57;;;25.67;;
7231;SDS011;3657;49.630;11.018;2022-08-19T09:51:31;22.53;;;21.20;;
7231;SDS011;3657;49.630;11.018;2022-08-19T09:53:59;20.97;;;19.77;;
7231;SDS011;3657;49.630;11.018;2022-08-19T09:56:27;21.37;;;20.17;;
7231;SDS011;3657;49.630;11.018;2022-08-19T09:58:55;21.67;;;20.37;;
7231;SDS011;3657;49.630;11.018;2022-08-19T10:01:24;25.00;;;23.30;;
7231;SDS011;3657;49.630;11.018;2022-08-19T10:03:52;20.83;;;19.67;;
7231;SDS011;3657;49.630;11.018;2022-08-19T10:06:23;20.97;;;19.60;;
7231;SDS011;3657;49.630;11.018;2022-08-19T10:08:52;22.70;;;21.27;;
7231;SDS011;3657;49.630;11.018;2022-08-19T10:11:19;21.53;;;20.23;;
7231;SDS011;3657;49.630;11.018;2022-08-19T10:13:46;23.43;;;22.03;;
7231;SDS011;3657;49.630;11.018;2022-08-19T10:16:14;23.60;;;22.13;;
7231;SDS011;3657;49.630;11.018;2022-08-19T10:18:44;25.40;;;23.53;;
7231;SDS011;3657;49.630;11.018;2022-08-19T10:21:12;21.27;;;19.97;;
7231;SDS011;3657;49.630;11.018;2022-08-19T10:23:43;20.97;;;19.77;;
7231;SDS011;3657;49.630;11.018;2022-08-19T10:26:14;23.70;;;22.17;;
7231;SDS011;3657;49.630;11.018;2022-08-19T10:28:42;22.63;;;21.03;;
7231;SDS011;3657;49.630;11.018;2022-08-19T10:31:10;22.20;;;20.90;;
7231;SDS011;3657;49.630;11.018;2022-08-19T10:33:38;20.70;;;19.50;;
7231;SDS011;3657;49.630;11.018;2022-08-19T10:36:06;22.63;;;21.17;;
7231;SDS011;3657;49.630;11.018;2022-08-19T10:38:35;24.10;;;22.53;;
7231;SDS011;3657;49.630;11.018;2022-08-19T10:41:11;22.53;;;21.13;;
7231;SDS011;3657;49.630;11.018;2022-08-19T10:43:39;20.37;;;19.27;;
7231;SDS011;3657;49.630;11.018;2022-08-19T10:46:07;22.03;;;20.70;;
7231;SDS011;3657;49.630;11.018;2022-08-19T10:48:34;21.30;;;20.00;;
7231;SDS011;3657;49.630;11.018;2022-08-19T10:51:01;22.07;;;20.77;;
7231;SDS011;3657;49.630;11.018;2022-08-19T10:53:46;19.93;;;18.93;;
7231;SDS011;3657;49.630;11.018;2022-08-19T10:56:14;20.33;;;19.27;;
7231;SDS011;3657;49.630;11.018;2022-08-19T10:58:59;21.67;;;20.47;;
7231;SDS011;3657;49.630;11.018;2022-08-19T11:01:27;22.10;;;20.77;;
7231;SDS011;3657;49.630;11.018;2022-08-19T11:03:55;21.20;;;19.90;;
7231;SDS011;3657;49.630;11.018;2022-08-19T11:06:23;21.67;;;20.47;;
7231;SDS011;3657;49.630;11.018;2022-08-19T11:08:51;21.03;;;19.73;;
7231;SDS011;3657;49.630;11.018;2022-08-19T11:11:19;19.90;;;18.90;;
7231;SDS011;3657;49.630;11.018;2022-08-19T11:13:46;21.50;;;20.07;;
7231;SDS011;3657;49.630;11.018;2022-08-19T11:16:15;20.67;;;19.47;;
7231;SDS011;3657;49.630;11.018;2022-08-19T11:18:44;20.20;;;19.03;;
7231;SDS011;3657;49.630;11.018;2022-08-19T11:21:13;19.77;;;18.77;;
7231;SDS011;3657;49.630;11.018;2022-08-19T11:23:43;20.50;;;19.27;;
7231;SDS011;3657;49.630;11.018;2022-08-19T11:26:11;19.83;;;18.83;;
7231;SDS011;3657;49.630;11.018;2022-08-19T11:28:40;19.33;;;18.33;;
7231;SDS011;3657;49.630;11.018;2022-08-19T11:31:09;20.30;;;19.17;;
7231;SDS011;3657;49.630;11.018;2022-08-19T11:33:37;19.03;;;18.03;;
7231;SDS011;3657;49.630;11.018;2022-08-19T11:36:03;18.30;;;17.47;;
7231;SDS011;3657;49.630;11.018;2022-08-19T11:38:31;19.97;;;18.87;;
7231;SDS011;3657;49.630;11.018;2022-08-19T11:40:58;20.63;;;19.47;;
7231;SDS011;3657;49.630;11.018;2022-08-19T11:43:26;21.60;;;20.30;;
7231;SDS011;3657;49.630;11.018;2022-08-19T11:45:55;19.70;;;18.70;;
7231;SDS011;3657;49.630;11.018;2022-08-19T11:48:23;18.90;;;17.80;;
7231;SDS011;3657;49.630;11.018;2022-08-19T11:50:51;20.13;;;18.93;;
7231;SDS011;3657;49.630;11.018;2022-08-19T11:53:20;19.97;;;18.83;;
7231;SDS011;3657;49.630;11.018;2022-08-19T11:55:47;18.20;;;17.40;;
7231;SDS011;3657;49.630;11.018;2022-08-19T11:58:15;19.70;;;18.80;;
7231;SDS011;3657;49.630;11.018;2022-08-19T12:00:43;20.73;;;19.50;;
7231;SDS011;3657;49.630;11.018;2022-08-19T12:03:12;18.77;;;17.83;;
7231;SDS011;3657;49.630;11.018;2022-08-19T12:05:39;18.03;;;17.17;;
7231;SDS011;3657;49.630;11.018;2022-08-19T12:08:07;19.07;;;18.13;;
7231;SDS011;3657;49.630;11.018;2022-08-19T12:10:35;21.93;;;20.73;;
7231;SDS011;3657;49.630;11.018;2022-08-19T12:13:02;19.50;;;18.37;;
7231;SDS011;3657;49.630;11.018;2022-08-19T12:15:29;19.17;;;18.17;;
7231;SDS011;3657;49.630;11.018;2022-08-19T12:17:56;22.13;;;20.73;;
7231;SDS011;3657;49.630;11.018;2022-08-19T12:20:24;19.00;;;18.10;;
7231;SDS011;3657;49.630;11.018;2022-08-19T12:22:51;20.07;;;18.87;;
7231;SDS011;3657;49.630;11.018;2022-08-19T12:25:18;18.33;;;17.53;;
7231;SDS011;3657;49.630;11.018;2022-08-19T12:27:45;19.53;;;18.43;;
7231;SDS011;3657;49.630;11.018;2022-08-19T12:30:12;18.47;;;17.53;;
7231;SDS011;3657;49.630;11.018;2022-08-19T12:32:39;19.10;;;18.00;;
7231;SDS011;3657;49.630;11.018;2022-08-19T12:35:07;19.97;;;18.97;;
7231;SDS011;3657;49.630;11.018;2022-08-19T12:37:37;19.10;;;18.20;;
7231;SDS011;3657;49.630;11.018;2022-08-19T12:40:09;19.93;;;18.90;;
7231;SDS011;3657;49.630;11.018;2022-08-19T12:42:37;19.03;;;18.00;;
7231;SDS011;3657;49.630;11.018;2022-08-19T12:45:07;18.57;;;17.67;;
7231;SDS011;3657;49.630;11.018;2022-08-19T12:47:34;18.93;;;18.10;;
7231;SDS011;3657;49.630;11.018;2022-08-19T12:50:01;19.53;;;18.40;;
7231;SDS011;3657;49.630;11.018;2022-08-19T12:52:29;18.47;;;17.67;;
7231;SDS011;3657;49.630;11.018;2022-08-19T12:54:57;19.23;;;18.23;;
7231;SDS011;3657;49.630;11.018;2022-08-19T12:57:25;18.37;;;17.40;;
7231;SDS011;3657;49.630;11.018;2022-08-19T12:59:52;19.03;;;18.03;;
7231;SDS011;3657;49.630;11.018;2022-08-19T13:02:19;18.60;;;17.80;;
7231;SDS011;3657;49.630;11.018;2022-08-19T13:04:47;18.33;;;17.43;;
7231;SDS011;3657;49.630;11.018;2022-08-19T13:07:14;19.23;;;18.17;;
7231;SDS011;3657;49.630;11.018;2022-08-19T13:09:40;18.63;;;17.73;;
7231;SDS011;3657;49.630;11.018;2022-08-19T13:12:08;19.43;;;18.40;;
7231;SDS011;3657;49.630;11.018;2022-08-19T13:14:37;18.70;;;17.80;;
7231;SDS011;3657;49.630;11.018;2022-08-19T13:17:05;17.87;;;16.97;;
7231;SDS011;3657;49.630;11.018;2022-08-19T13:19:35;19.60;;;18.50;;
7231;SDS011;3657;49.630;11.018;2022-08-19T13:22:02;18.63;;;17.83;;
7231;SDS011;3657;49.630;11.018;2022-08-19T13:24:29;18.20;;;17.33;;
7231;SDS011;3657;49.630;11.018;2022-08-19T13:26:56;20.70;;;19.50;;
7231;SDS011;3657;49.630;11.018;2022-08-19T13:29:24;18.90;;;18.00;;
7231;SDS011;3657;49.630;11.018;2022-08-19T13:32:08;19.10;;;18.10;;
7231;SDS011;3657;49.630;11.018;2022-08-19T13:34:52;17.50;;;16.70;;
7231;SDS011;3657;49.630;11.018;2022-08-19T13:37:19;18.23;;;17.40;;
7231;SDS011;3657;49.630;11.018;2022-08-19T13:40:06;18.20;;;17.40;;
7231;SDS011;3657;49.630;11.018;2022-08-19T13:42:37;21.10;;;19.93;;
7231;SDS011;3657;49.630;11.018;2022-08-19T13:45:06;23.70;;;22.23;;
7231;SDS011;3657;49.630;11.018;2022-08-19T13:47:33;20.60;;;19.47;;
7231;SDS011;3657;49.630;11.018;2022-08-19T13:50:02;17.37;;;16.67;;
7231;SDS011;3657;49.630;11.018;2022-08-19T13:52:29;17.03;;;16.37;;
7231;SDS011;3657;49.630;11.018;2022-08-19T13:54:55;18.53;;;17.53;;
7231;SDS011;3657;49.630;11.018;2022-08-19T13:57:23;17.20;;;16.50;;
7231;SDS011;3657;49.630;11.018;2022-08-19T13:59:49;16.50;;;15.80;;
7231;SDS011;3657;49.630;11.018;2022-08-19T14:02:17;15.57;;;14.97;;
7231;SDS011;3657;49.630;11.018;2022-08-19T14:04:44;15.53;;;14.93;;
7231;SDS011;3657;49.630;11.018;2022-08-19T14:07:10;14.20;;;13.67;;
7231;SDS011;3657;49.630;11.018;2022-08-19T14:09:37;13.93;;;13.47;;
7231;SDS011;3657;49.630;11.018;2022-08-19T14:12:04;14.50;;;14.00;;
7231;SDS011;3657;49.630;11.018;2022-08-19T14:14:31;14.03;;;13.47;;
7231;SDS011;3657;49.630;11.018;2022-08-19T14:17:02;13.00;;;12.50;;
7231;SDS011;3657;49.630;11.018;2022-08-19T14:19:33;11.60;;;11.20;;
7231;SDS011;3657;49.630;11.018;2022-08-19T14:22:00;13.23;;;12.73;;
7231;SDS011;3657;49.630;11.018;2022-08-19T14:24:27;11.57;;;11.17;;
7231;SDS011;3657;49.630;11.018;2022-08-19T14:26:53;12.37;;;11.97;;
7231;SDS011;3657;49.630;11.018;2022-08-19T14:29:20;12.70;;;12.30;;
7231;SDS011;3657;49.630;11.018;2022-08-19T14:31:47;12.63;;;12.23;;
7231;SDS011;3657;49.630;11.018;2022-08-19T14:34:13;11.77;;;11.37;;
7231;SDS011;3657;49.630;11.018;2022-08-19T14:36:42;11.47;;;11.10;;
7231;SDS011;3657;49.630;11.018;2022-08-19T14:39:10;10.60;;;10.30;;
7231;SDS011;3657;49.630;11.018;2022-08-19T14:41:36;11.20;;;10.90;;